Terminal Aerodrome Forecast
Issued by NWS Northern Indiana

Home | Current Version | Previous Version | Text Only | Print | Product List | Glossary Off
Versions: 1 2 3 4 5 6 7 8 9 10 11 12 13 14 15 16

341
FTUS43 KIWX 271734
TAFFWA
TAF
KFWA 271734Z 2718/2818 04005KT P6SM BKN020
     FM272100 03004KT P6SM BKN035
     FM281200 16005KT 3SM BR VCSH OVC015
     FM281700 19006KT P6SM OVC030=

USA.gov is the U.S. government's official web portal to all federal, state and local government web resources and services.